Greenhill, United Kingdom

5:06 PM BST on September 02, 2015 (GMT +0100)
East Renfrewshire | | Change Station
CLOSE
Current Station
Personal Weather Station
Location: Neilston, GLASGOW
Elevation: 452 ft
Nearby Weather Stations

Elev 452 ft 55.78 °N, 4.42 °W | Updated 2 seconds ago

Partly Cloudy
Partly Cloudy
56.9 °F
Feels Like 56.9 °F
N
3.5
Wind Variable Wind from NNW
Gusts 3.5 mph

Today
High -- | Low -- °F
--% Chance of Precip.
Yesterday
High -- | Low -- °F
Precip. -- in
6:23 AM 8:10 PM
Waning Gibbous, 79% visible
Pressure 30.04 in
Visibility 6.2 miles
Clouds Few 4400 ft
Dew Point 44 °F
Humidity 62%
Rainfall 0.00 in
Snow Depth Not available.
UV 2 out of 12
Pollen Not available.
Air Quality Not available.
Flu Activity Not available.
METAR EGPF 021550Z 33005KT 9999 FEW044 15/06 Q1017
Pressure 30.04 in
Visibility 6.2 miles
Clouds Few 4400 ft
Dew Point 44 °F
Humidity 62%
Rainfall 0.00 in
Snow Depth Not available.
UV 2 out of 12
Pollen Not available.
Air Quality Not available.
Flu Activity Not available.
METAR EGPF 021550Z 33005KT 9999 FEW044 15/06 Q1017

10-Day Weather Forecast

×

Almanac

Astronomy

Sep. 02, 2015 Rise Set
Actual Time
Civil Twilight
Nautical Twilight
Astronomical Twilight
Moon
Length of Visible Light
Length of Day
Tomorrow will be .
, % of the Moon is Illuminated

Today's Extremes

Country Highs Country Lows

Community

WunderPhotos

Upload Photos

1,851,776 photos uploaded!

WunderBlogs® & News

Nearby

Air Quality

  Air Quality AQ Index Pollutant
Not available.

Snow Depth

Station Depth Elevation

Earthquake Activity

City Distance Mag. Time & Date
Minimum magnitude displayed is 2.5.

Coastal Water Temperatures

Place Temperature

Stations

Nearby Weather Stations

Station Location Temp. Windchill Dew Point Humidity Wind Precip. Elev Updated Type